Country
Station

 

Weather  for  Monroe, Monroe Regional Airport  -  United States    United States

  
14 °C (57 °F)
    
 
 

Current METAR for Monroe, Monroe Regional Airport is :

KMLU 212243Z 34007KT 8SM -RA OVC009 14/13 A3018 RMK AO2 PK WND 04027/2214 WSHFT 2223 CIG 007V012 P0001 T01390133

 

This is a report for Monroe, Monroe Regional Airport - United States.
 
The report was made 5 minutes ago, at 22:43 UTC .
The wind was blowing at a speed of 3.6 meters per second (8.1 miles per hour) from north/northwest (340°).
 
The temperature was 14 °C (57 °F), with a dew-point at 13 °C (55 °F).
The atmospheric pressure was 1022 hPa (30.18 inHg).
The relative humidity was 93.7%.
 
The sky was overcast from a height of 274 meter (900 feet)
 
The overall visibility was 12.9 kilometers (8.0 miles).
 
Currently light rain.

 
 
 
 

Country :   A   B   C   D   E   F   G   H   I   J   K   L   M   N   O   P   Q   R   S   T   U   V   W   Y   Z

 

Site Info  |  Disclaimer  |  Credits  |  Privacy
Contact us  |  Add to favorites
© 2013-2018 METARs - All rights reserved